Time;durP1;ratioP1;P1;durP2;ratioP2;P2;SDS_P1;SDS_P2;PMS_P1;PMS_P2;Temp;Humidity;BMP_temperature;BMP_pressure;BME280_temperature;BME280_humidity;BME280_pressure;Samples;Min_cycle;Max_cycle;Signal;HPM_P1;HPM_P2
2022/08/05 00:00:17;;;;;;;14.50;5.80;;;;;;;18.69;48.89;99100.70;107855;1274;97037;-65
2022/08/05 00:03:05;;;;;;;12.80;5.90;;;;;;;18.69;48.96;99102.52;107957;1274;96946;-65
2022/08/05 00:05:42;;;;;;;15.20;5.90;;;;;;;18.67;49.21;99102.52;107936;1274;113372;-66
2022/08/05 00:08:30;;;;;;;13.20;5.80;;;;;;;18.63;49.23;99102.70;107957;1274;97297;-65
2022/08/05 00:11:06;;;;;;;12.80;5.50;;;;;;;18.61;49.30;99103.46;107929;1274;107906;-65
2022/08/05 00:13:54;;;;;;;15.30;5.50;;;;;;;18.60;49.29;99106.29;107939;1274;96985;-66
2022/08/05 00:16:22;;;;;;;15.80;6.70;;;;;;;18.55;49.28;99101.39;107941;1274;96938;-65
2022/08/05 00:19:09;;;;;;;15.10;6.00;;;;;;;18.50;49.67;99101.08;107936;1274;112856;-66
2022/08/05 00:21:37;;;;;;;16.80;6.00;;;;;;;18.43;49.50;99101.61;107956;1274;96997;-65
2022/08/05 00:24:09;;;;;;;14.30;5.70;;;;;;;18.40;49.73;99097.73;107946;1274;107880;-66
2022/08/05 00:26:45;;;;;;;18.30;6.20;;;;;;;18.37;49.79;99096.48;107844;1274;96997;-66
2022/08/05 00:29:21;;;;;;;16.00;6.10;;;;;;;18.31;49.84;99096.00;107984;1274;96964;-66
2022/08/05 00:31:55;;;;;;;13.80;6.10;;;;;;;18.30;49.95;99105.06;107946;1274;112869;-66
2022/08/05 00:34:42;;;;;;;14.40;6.30;;;;;;;18.26;50.09;99104.09;107961;1274;97069;-66
2022/08/05 00:37:30;;;;;;;13.60;5.70;;;;;;;18.22;50.14;99103.06;107943;1274;108103;-64
2022/08/05 00:40:19;;;;;;;13.60;5.90;;;;;;;18.16;50.00;99099.90;107948;1274;97011;-66
2022/08/05 00:42:58;;;;;;;17.10;5.40;;;;;;;18.10;50.25;99092.83;107971;1274;97020;-66
2022/08/05 00:45:27;;;;;;;15.20;6.50;;;;;;;18.05;50.30;99095.67;107942;1274;112803;-66
2022/08/05 00:48:16;;;;;;;14.70;6.20;;;;;;;18.03;50.58;99097.81;107946;1274;97001;-67
2022/08/05 00:50:46;;;;;;;17.00;6.20;;;;;;;18.04;50.61;99095.98;107928;1274;107924;-66
2022/08/05 00:53:18;;;;;;;15.20;5.50;;;;;;;18.03;50.68;99100.36;107945;1274;97012;-66
2022/08/05 00:56:06;;;;;;;18.10;6.10;;;;;;;18.04;50.70;99097.44;107964;1274;97058;-66
2022/08/05 00:58:35;;;;;;;17.40;6.30;;;;;;;18.02;50.89;99090.20;107934;1274;111870;-66
2022/08/05 01:01:03;;;;;;;13.40;5.70;;;;;;;18.02;50.88;99087.74;107936;1274;97517;-66
2022/08/05 01:03:37;;;;;;;15.70;6.20;;;;;;;17.99;51.02;99088.52;107935;1274;107886;-66
2022/08/05 01:06:05;;;;;;;15.10;5.90;;;;;;;17.94;51.00;99086.36;107940;1274;97026;-65
2022/08/05 01:08:40;;;;;;;13.70;5.70;;;;;;;17.87;51.05;99078.11;107979;1274;96970;-65
2022/08/05 01:11:16;;;;;;;13.30;6.20;;;;;;;17.83;51.02;99077.38;107955;1274;112772;-65
2022/08/05 01:14:05;;;;;;;13.00;6.10;;;;;;;17.82;51.30;99075.58;107950;1274;97044;-66
2022/08/05 01:16:53;;;;;;;13.10;5.70;;;;;;;17.82;51.43;99075.91;107929;1274;107857;-66
2022/08/05 01:19:21;;;;;;;10.70;5.20;;;;;;;17.84;51.39;99072.44;107825;1274;97038;-66
2022/08/05 01:22:44;;;;;;;12.00;5.80;;;;;;;17.85;51.64;99074.73;107956;1274;97037;-66
2022/08/05 01:25:38;;;;;;;12.20;5.40;;;;;;;17.85;51.80;99068.98;107945;1274;112900;-66
2022/08/05 01:28:31;;;;;;;14.70;5.80;;;;;;;17.87;51.92;99072.72;107967;1274;96998;-65
2022/08/05 01:31:05;;;;;;;15.70;5.80;;;;;;;17.87;51.64;99072.36;107937;1274;107864;-66
2022/08/05 01:33:41;;;;;;;16.30;5.30;;;;;;;17.83;51.70;99068.46;107956;1274;96961;-66
2022/08/05 01:36:17;;;;;;;14.40;6.40;;;;;;;17.78;51.89;99060.94;107970;1274;96911;-65
2022/08/05 01:38:48;;;;;;;13.40;5.90;;;;;;;17.78;52.13;99057.44;107960;1274;112449;-65
2022/08/05 01:41:21;;;;;;;14.00;5.80;;;;;;;17.82;52.41;99061.59;107960;1274;97000;-65
2022/08/05 01:43:53;;;;;;;12.20;5.80;;;;;;;17.83;52.32;99059.65;107876;1274;107722;-66
2022/08/05 01:46:23;;;;;;;13.50;6.10;;;;;;;17.84;52.23;99062.59;107952;1274;97001;-66
2022/08/05 01:49:16;;;;;;;16.10;5.90;;;;;;;17.83;52.53;99058.08;107970;1274;96951;-65
2022/08/05 01:51:56;;;;;;;12.80;5.80;;;;;;;17.83;52.46;99060.39;107958;1274;111957;-66
2022/08/05 01:54:33;;;;;;;22.00;6.50;;;;;;;17.80;52.61;99059.39;107948;1274;97071;-65
2022/08/05 01:57:19;;;;;;;15.20;5.30;;;;;;;17.76;52.63;99053.68;107967;1274;107994;-65
2022/08/05 02:00:09;;;;;;;12.20;5.60;;;;;;;17.76;52.62;99057.35;107951;1274;97013;-66
2022/08/05 02:02:47;;;;;;;16.10;6.60;;;;;;;17.73;52.27;99059.98;107981;1274;96886;-66
2022/08/05 02:05:26;;;;;;;15.20;5.80;;;;;;;17.63;52.22;99059.19;107976;1274;111834;-66
2022/08/05 02:07:56;;;;;;;12.20;5.80;;;;;;;17.54;52.40;99054.02;107970;1274;96998;-67
2022/08/05 02:10:35;;;;;;;13.00;5.10;;;;;;;17.47;52.51;99053.85;107944;1274;107878;-66
2022/08/05 02:13:34;;;;;;;14.20;5.50;;;;;;;17.40;52.63;99056.66;107954;1274;97045;-66
2022/08/05 02:16:27;;;;;;;13.10;5.70;;;;;;;17.31;52.84;99054.41;107958;1274;96949;-66
2022/08/05 02:19:08;;;;;;;12.40;5.20;;;;;;;17.26;53.08;99050.51;107952;1274;112714;-67
2022/08/05 02:21:44;;;;;;;11.70;5.50;;;;;;;17.25;53.30;99051.73;107968;1274;97505;-66
2022/08/05 02:24:18;;;;;;;12.30;5.20;;;;;;;17.26;53.53;99048.42;107950;1274;108278;-66
2022/08/05 02:26:55;;;;;;;13.20;5.30;;;;;;;17.27;53.57;99043.06;107959;1274;97012;-66
2022/08/05 02:29:26;;;;;;;8.80;5.20;;;;;;;17.30;53.35;99042.41;107973;1274;96997;-66
2022/08/05 02:32:17;;;;;;;13.10;5.40;;;;;;;17.23;53.04;99043.46;107957;1274;112733;-66
2022/08/05 02:34:52;;;;;;;13.10;6.10;;;;;;;17.08;53.18;99038.53;107974;1274;97378;-66
2022/08/05 02:37:22;;;;;;;12.10;5.90;;;;;;;16.98;53.29;99039.16;107939;1274;108029;-66
2022/08/05 02:39:52;;;;;;;11.70;5.50;;;;;;;16.90;53.43;99035.52;107952;1274;96991;-66
2022/08/05 02:42:21;;;;;;;10.00;5.30;;;;;;;16.82;53.72;99034.30;107975;1274;96963;-67
2022/08/05 02:44:59;;;;;;;11.80;5.20;;;;;;;16.82;54.17;99032.86;107965;1274;112840;-66
2022/08/05 02:47:30;;;;;;;12.60;5.60;;;;;;;16.82;54.30;99033.41;107969;1274;97002;-65
2022/08/05 02:50:20;;;;;;;14.20;5.50;;;;;;;16.87;54.28;99036.35;107960;1274;107864;-65
2022/08/05 02:52:50;;;;;;;11.80;5.60;;;;;;;16.89;54.14;99032.21;107951;1274;96975;-65
2022/08/05 02:55:19;;;;;;;11.90;6.00;;;;;;;16.82;54.24;99032.11;107968;1274;97014;-65
2022/08/05 02:58:07;;;;;;;13.00;5.80;;;;;;;16.77;54.50;99031.66;107961;1274;112846;-65
2022/08/05 03:00:47;;;;;;;14.70;6.10;;;;;;;16.72;54.56;99025.94;107991;1274;97026;-66
2022/08/05 03:03:19;;;;;;;12.30;5.10;;;;;;;16.72;54.56;99026.30;107959;1274;107862;-66
2022/08/05 03:05:51;;;;;;;12.20;5.40;;;;;;;16.72;54.81;99028.64;107940;1273;96984;-66
2022/08/05 03:08:41;;;;;;;13.40;6.10;;;;;;;16.76;55.02;99028.12;107973;1274;96900;-67
2022/08/05 03:11:20;;;;;;;12.40;5.90;;;;;;;16.81;55.09;99027.94;107977;1274;112861;-65
2022/08/05 03:14:08;;;;;;;11.10;5.80;;;;;;;16.82;55.07;99017.84;107991;1274;97493;-66
2022/08/05 03:16:40;;;;;;;11.90;6.30;;;;;;;16.86;55.11;99024.39;107948;1274;107650;-67
2022/08/05 03:19:09;;;;;;;14.30;6.70;;;;;;;16.88;55.30;99021.55;107942;1274;96975;-66
2022/08/05 03:21:55;;;;;;;14.00;5.30;;;;;;;16.83;55.18;99020.04;107981;1274;96949;-67
2022/08/05 03:24:25;;;;;;;13.20;5.70;;;;;;;16.82;55.04;99013.71;107974;1274;113864;-66
2022/08/05 03:26:58;;;;;;;15.00;5.70;;;;;;;16.82;55.51;99020.83;107984;1274;96996;-67
2022/08/05 03:29:26;;;;;;;13.40;5.50;;;;;;;16.81;55.31;99019.31;107958;1274;107837;-66
2022/08/05 03:32:15;;;;;;;13.60;6.20;;;;;;;16.80;55.49;99016.75;107954;1274;96953;-66
2022/08/05 03:34:44;;;;;;;11.90;6.20;;;;;;;16.77;55.54;99018.50;107972;1274;96986;-67
2022/08/05 03:37:22;;;;;;;10.30;5.70;;;;;;;16.77;55.62;99014.10;107991;1274;112944;-66
2022/08/05 03:39:55;;;;;;;13.00;5.20;;;;;;;16.79;55.50;99014.66;107972;1274;97094;-66
2022/08/05 03:42:26;;;;;;;15.60;6.70;;;;;;;16.73;55.30;99008.49;107915;1274;107909;-66
2022/08/05 03:44:58;;;;;;;10.30;5.80;;;;;;;16.62;55.40;99010.70;107942;1274;97229;-65
2022/08/05 03:47:46;;;;;;;13.70;5.70;;;;;;;16.54;55.55;99010.41;107972;1274;97009;-66
2022/08/05 03:50:16;;;;;;;12.90;6.00;;;;;;;16.47;55.54;99009.73;107070;1275;1118777;-66
2022/08/05 03:53:05;;;;;;;13.40;6.00;;;;;;;16.49;55.92;99018.92;107832;1276;97035;-66
2022/08/05 03:56:02;;;;;;;10.70;5.70;;;;;;;16.51;56.12;99016.86;107939;1274;107985;-66
2022/08/05 03:58:47;;;;;;;15.50;5.80;;;;;;;16.54;55.91;99011.42;107961;1274;96962;-66
2022/08/05 04:01:19;;;;;;;16.00;6.60;;;;;;;16.52;56.09;99010.55;107975;1274;97152;-66
2022/08/05 04:03:49;;;;;;;12.90;6.40;;;;;;;16.53;56.24;99004.00;107968;1274;112482;-66
2022/08/05 04:06:37;;;;;;;12.00;5.80;;;;;;;16.58;56.53;99002.23;107979;1274;97037;-66
2022/08/05 04:09:15;;;;;;;12.70;6.00;;;;;;;16.64;56.54;99004.85;107915;1274;107826;-66
2022/08/05 04:11:54;;;;;;;14.90;6.00;;;;;;;16.70;56.57;99002.95;107789;1276;97425;-68
2022/08/05 04:14:26;;;;;;;17.80;7.40;;;;;;;16.71;56.67;99001.48;107895;1274;96999;-67
2022/08/05 04:16:58;;;;;;;15.60;6.80;;;;;;;16.74;56.78;99002.48;107941;1274;112975;-65
2022/08/05 04:19:28;;;;;;;15.40;6.70;;;;;;;16.77;56.80;99003.79;107874;1275;97013;-64
2022/08/05 04:21:56;;;;;;;14.50;5.90;;;;;;;16.83;56.83;99000.33;107940;1274;107911;-64
2022/08/05 04:24:40;;;;;;;15.70;7.60;;;;;;;16.89;56.88;99002.48;107948;1274;97026;-67
2022/08/05 04:27:12;;;;;;;14.70;6.80;;;;;;;16.92;56.79;99004.83;107966;1274;96953;-66
2022/08/05 04:29:40;;;;;;;16.30;6.70;;;;;;;16.90;56.56;99006.60;107972;1274;112904;-67
2022/08/05 04:32:09;;;;;;;16.00;6.50;;;;;;;16.92;56.76;99009.29;107957;1274;97048;-65
2022/08/05 04:34:37;;;;;;;17.40;7.20;;;;;;;16.92;56.96;99009.98;107944;1274;107819;-65
2022/08/05 04:37:10;;;;;;;16.50;6.30;;;;;;;16.96;56.75;99010.90;107790;1275;97044;-66
2022/08/05 04:39:39;;;;;;;16.00;6.40;;;;;;;16.99;56.98;99009.78;107934;1274;96978;-67
2022/08/05 04:42:07;;;;;;;12.60;5.70;;;;;;;17.00;57.08;99006.77;107944;1274;112977;-67
2022/08/05 04:44:35;;;;;;;15.20;6.80;;;;;;;17.05;57.21;99006.06;107962;1274;97014;-68
2022/08/05 04:47:03;;;;;;;13.20;6.40;;;;;;;17.09;57.31;99006.13;107941;1274;107856;-68
2022/08/05 04:49:39;;;;;;;16.00;6.10;;;;;;;17.14;57.27;99007.48;107952;1274;97058;-67
2022/08/05 04:52:27;;;;;;;14.40;6.90;;;;;;;17.15;57.46;99003.65;107987;1274;97003;-66
2022/08/05 04:54:55;;;;;;;17.00;6.80;;;;;;;17.19;57.32;99003.78;107834;1274;111456;-65
2022/08/05 04:57:25;;;;;;;16.20;6.80;;;;;;;17.24;57.55;98999.83;107973;1274;97039;-66
2022/08/05 04:59:56;;;;;;;14.80;6.50;;;;;;;17.30;57.63;99001.82;107941;1274;107901;-66
2022/08/05 05:02:25;;;;;;;16.70;7.10;;;;;;;17.35;57.64;99003.08;107951;1274;97060;-66
2022/08/05 05:05:08;;;;;;;16.40;7.10;;;;;;;17.38;57.90;98995.55;108003;1274;97469;-65
2022/08/05 05:07:54;;;;;;;15.00;6.80;;;;;;;17.47;57.54;98998.95;107970;1274;112622;-65
2022/08/05 05:10:31;;;;;;;14.90;7.10;;;;;;;17.51;57.73;99000.72;107965;1274;97025;-65
2022/08/05 05:13:00;;;;;;;14.70;7.30;;;;;;;17.53;57.62;98997.04;107956;1274;107634;-65
2022/08/05 05:15:31;;;;;;;19.50;7.20;;;;;;;17.61;57.99;99001.18;107960;1274;97376;-64
2022/08/05 05:18:19;;;;;;;18.20;7.10;;;;;;;17.68;57.94;99003.25;107984;1274;97030;-66
2022/08/05 05:21:01;;;;;;;14.70;6.60;;;;;;;17.73;58.22;99002.02;107978;1274;112797;-66
2022/08/05 05:23:30;;;;;;;16.70;7.50;;;;;;;17.80;57.91;99002.03;107976;1274;97335;-66
2022/08/05 05:26:18;;;;;;;17.00;6.80;;;;;;;17.87;57.87;98999.18;107959;1274;107872;-66
2022/08/05 05:28:55;;;;;;;14.20;6.60;;;;;;;17.94;57.96;99004.15;107961;1274;96954;-66
2022/08/05 05:31:23;;;;;;;17.30;7.30;;;;;;;18.02;58.33;99003.77;107987;1273;96923;-66
2022/08/05 05:33:58;;;;;;;20.10;7.00;;;;;;;18.10;58.49;99003.42;107905;1274;112930;-65
2022/08/05 05:36:30;;;;;;;17.00;6.90;;;;;;;18.17;58.36;99001.48;108001;1274;97099;-66
2022/08/05 05:38:58;;;;;;;18.30;7.30;;;;;;;18.30;58.40;99008.77;107827;1274;107958;-66
2022/08/05 05:41:26;;;;;;;16.80;7.30;;;;;;;18.39;58.20;99008.35;107968;1274;96945;-65
2022/08/05 05:44:07;;;;;;;13.20;6.40;;;;;;;18.48;58.42;99008.31;107765;1274;97058;-67
2022/08/05 05:46:55;;;;;;;16.90;7.30;;;;;;;18.55;58.51;99012.33;107909;1272;112839;-66
2022/08/05 05:49:25;;;;;;;15.10;6.10;;;;;;;18.63;58.72;99007.71;107873;1274;97014;-66
2022/08/05 05:51:53;;;;;;;17.00;7.00;;;;;;;18.71;58.59;99003.33;107932;1274;106473;-67
2022/08/05 05:54:21;;;;;;;15.50;6.90;;;;;;;18.80;58.72;99002.89;107876;1274;97076;-66
2022/08/05 05:57:09;;;;;;;14.50;6.70;;;;;;;18.89;58.97;98999.53;107942;1274;97047;-65
2022/08/05 05:59:40;;;;;;;15.80;7.40;;;;;;;18.98;59.14;99000.39;107935;1272;112830;-66
2022/08/05 06:02:09;;;;;;;16.50;6.80;;;;;;;19.06;59.13;99000.11;107906;1274;97474;-66
2022/08/05 06:04:37;;;;;;;17.40;6.70;;;;;;;19.15;59.14;98996.77;107887;1274;107820;-67
2022/08/05 06:07:05;;;;;;;22.40;7.50;;;;;;;19.24;59.18;98996.33;107907;1274;96999;-67
2022/08/05 06:09:33;;;;;;;14.30;6.50;;;;;;;19.32;59.25;98993.67;107956;1274;97371;-66
2022/08/05 06:12:20;;;;;;;21.50;7.40;;;;;;;19.46;59.11;98995.02;107957;1274;112863;-66
2022/08/05 06:14:53;;;;;;;14.20;6.50;;;;;;;19.59;59.10;98994.66;107929;1274;97015;-67
2022/08/05 06:17:23;;;;;;;15.20;6.90;;;;;;;19.70;59.24;98993.92;107942;1274;107859;-66
2022/08/05 06:19:58;;;;;;;14.90;6.60;;;;;;;19.85;59.22;98991.16;107927;1274;97417;-66
2022/08/05 06:22:31;;;;;;;17.40;6.90;;;;;;;20.00;59.31;98990.52;107882;1274;98421;-66
2022/08/05 06:25:02;;;;;;;16.60;6.40;;;;;;;20.13;59.27;98990.98;107902;1274;112815;-66
2022/08/05 06:27:50;;;;;;;16.40;5.70;;;;;;;20.32;59.25;98989.46;107931;1274;97472;-66
2022/08/05 06:30:38;;;;;;;14.50;6.00;;;;;;;20.52;59.56;98987.06;107914;1274;107652;-66
2022/08/05 06:33:07;;;;;;;15.10;6.30;;;;;;;20.65;59.38;98990.99;107913;1274;97436;-65
2022/08/05 06:35:37;;;;;;;13.40;5.90;;;;;;;20.76;59.38;98992.73;107851;1276;96997;-66
2022/08/05 06:38:25;;;;;;;16.90;5.40;;;;;;;20.89;59.48;98996.09;107896;1274;111972;-65
2022/08/05 06:41:04;;;;;;;17.10;5.60;;;;;;;21.04;59.38;98989.69;107913;1274;97024;-66
2022/08/05 06:43:35;;;;;;;22.60;7.50;;;;;;;21.19;59.38;98994.27;107912;1274;107721;-66
2022/08/05 06:46:23;;;;;;;20.20;6.60;;;;;;;21.31;59.60;98986.42;107869;1274;97031;-67
2022/08/05 06:48:58;;;;;;;18.30;5.90;;;;;;;21.43;59.49;98987.46;107899;1274;97116;-66
2022/08/05 06:51:28;;;;;;;15.50;5.90;;;;;;;21.58;59.17;98981.60;107903;1274;112762;-66
2022/08/05 06:53:59;;;;;;;14.10;5.50;;;;;;;21.76;59.33;98981.61;107880;1275;97098;-66
2022/08/05 06:56:30;;;;;;;13.70;5.50;;;;;;;21.94;59.48;98986.94;107819;1274;107929;-66
2022/08/05 06:59:03;;;;;;;13.50;5.10;;;;;;;22.07;59.19;98980.17;107893;1274;97017;-67
2022/08/05 07:01:38;;;;;;;13.60;5.60;;;;;;;22.20;59.35;98979.38;107568;1276;97510;-67
2022/08/05 07:04:08;;;;;;;14.50;5.30;;;;;;;22.29;59.25;98975.70;107937;1274;113028;-67
2022/08/05 07:06:36;;;;;;;14.30;5.30;;;;;;;22.45;59.48;98977.31;107904;1274;96989;-67
2022/08/05 07:09:04;;;;;;;14.20;5.60;;;;;;;22.53;59.26;98968.05;107917;1274;107917;-66
2022/08/05 07:11:33;;;;;;;12.70;5.40;;;;;;;22.69;59.27;98964.66;107939;1274;97028;-67
2022/08/05 07:17:00;;;;;;;;;;;;;;;25.63;57.26;98965.48;107883;1276;112923;-66
2022/08/05 07:19:51;;;;;;;13.20;5.00;;;;;;;27.58;57.07;98965.29;107947;1273;97434;-66
2022/08/05 07:22:39;;;;;;;10.90;4.30;;;;;;;29.47;56.65;98963.95;107854;1276;107874;-67
2022/08/05 07:25:09;;;;;;;12.70;4.30;;;;;;;30.89;56.92;98964.27;107928;1274;97053;-67
2022/08/05 07:27:57;;;;;;;16.70;4.60;;;;;;;32.08;56.47;98959.98;107993;1274;96941;-68
2022/08/05 07:30:36;;;;;;;10.70;3.80;;;;;;;32.86;55.97;98957.92;107902;1275;111850;-67
2022/08/05 07:33:08;;;;;;;13.60;4.80;;;;;;;33.66;55.34;98953.80;107961;1274;97057;-67
2022/08/05 07:35:45;;;;;;;6.40;3.60;;;;;;;34.54;55.04;98954.57;107654;1274;110609;-67
2022/08/05 07:38:36;;;;;;;13.90;3.60;;;;;;;35.13;53.83;98961.45;107877;1276;97058;-67
2022/08/05 07:41:21;;;;;;;9.80;4.00;;;;;;;35.68;53.47;98957.56;107798;1276;97074;-66
2022/08/05 07:44:09;;;;;;;10.20;3.70;;;;;;;36.70;52.73;98961.55;107679;1276;112570;-67
2022/08/05 07:46:47;;;;;;;6.00;3.60;;;;;;;37.29;51.95;98958.81;107868;1275;97483;-67
2022/08/05 07:49:18;;;;;;;5.40;3.10;;;;;;;37.48;50.53;98959.77;107975;1274;107894;-68
2022/08/05 07:51:46;;;;;;;9.40;3.70;;;;;;;37.60;49.21;98960.92;107842;1276;97128;-68
2022/08/05 07:54:25;;;;;;;9.20;3.20;;;;;;;38.42;49.67;98966.39;107830;1275;96978;-67
2022/08/05 07:57:01;;;;;;;9.60;3.30;;;;;;;38.84;48.30;98963.23;107848;1275;113025;-67
2022/08/05 07:59:49;;;;;;;6.50;3.30;;;;;;;38.97;47.18;98963.42;107970;1274;97584;-68
2022/08/05 08:02:23;;;;;;;7.60;3.00;;;;;;;39.04;46.29;98960.64;107873;1276;108840;-67
2022/08/05 08:04:57;;;;;;;7.00;3.50;;;;;;;38.93;44.62;98960.44;107982;1274;97006;-67
2022/08/05 08:07:25;;;;;;;7.00;3.10;;;;;;;39.33;45.11;98957.85;108022;1274;96925;-67
2022/08/05 08:09:55;;;;;;;8.50;3.40;;;;;;;40.30;44.67;98964.67;107970;1274;114028;-68
2022/08/05 08:12:24;;;;;;;6.20;3.00;;;;;;;41.23;44.74;98958.20;107895;1276;97497;-68
2022/08/05 08:15:09;;;;;;;8.20;3.00;;;;;;;41.37;42.92;98955.66;107853;1276;107497;-68
2022/08/05 08:17:44;;;;;;;6.20;3.00;;;;;;;41.43;42.42;98955.23;108001;1274;97021;-68
2022/08/05 08:20:24;;;;;;;9.10;3.30;;;;;;;42.16;42.64;98956.44;108014;1274;96953;-68
2022/08/05 08:23:12;;;;;;;8.30;3.20;;;;;;;42.67;41.83;98959.36;108010;1274;112866;-68
2022/08/05 08:26:00;;;;;;;10.10;3.60;;;;;;;42.86;41.05;98961.34;108014;1274;97438;-68
2022/08/05 08:28:32;;;;;;;6.60;3.60;;;;;;;43.32;40.47;98961.53;107903;1275;108033;-67
2022/08/05 08:31:09;;;;;;;5.60;3.10;;;;;;;43.86;40.21;98962.22;107998;1274;96990;-67
2022/08/05 08:33:44;;;;;;;8.70;3.10;;;;;;;43.73;37.65;98953.98;108037;1274;97519;-68
2022/08/05 08:36:18;;;;;;;10.60;3.90;;;;;;;42.65;36.66;98953.14;107921;1275;112775;-66
2022/08/05 08:39:06;;;;;;;6.50;2.90;;;;;;;43.07;37.52;98956.88;108003;1274;97444;-66
2022/08/05 08:41:47;;;;;;;7.80;3.00;;;;;;;43.78;37.27;98950.77;108007;1274;108284;-67
2022/08/05 08:44:30;;;;;;;5.70;3.20;;;;;;;43.83;35.39;98950.88;108006;1274;97037;-67
2022/08/05 08:47:22;;;;;;;9.20;3.50;;;;;;;43.04;34.17;98952.66;108005;1274;96921;-67
2022/08/05 08:50:12;;;;;;;7.40;2.70;;;;;;;42.88;34.14;98941.56;108001;1274;112884;-67
2022/08/05 08:53:05;;;;;;;7.70;2.90;;;;;;;42.93;33.99;98943.14;108011;1274;97138;-67
2022/08/05 08:55:40;;;;;;;5.30;2.90;;;;;;;43.14;32.94;98942.70;107984;1274;108028;-67
2022/08/05 08:58:28;;;;;;;4.90;2.50;;;;;;;42.98;32.73;98933.14;107912;1275;97016;-67
2022/08/05 09:01:15;;;;;;;5.70;2.90;;;;;;;42.91;31.97;98931.63;108019;1274;97068;-67
2022/08/05 09:03:52;;;;;;;5.60;2.70;;;;;;;42.81;31.50;98931.66;107995;1274;112547;-67
2022/08/05 09:06:27;;;;;;;7.80;2.80;;;;;;;42.12;29.86;98934.85;108016;1274;96985;-68
2022/08/05 09:08:59;;;;;;;7.30;2.60;;;;;;;41.94;30.75;98930.91;107981;1274;107862;-68
2022/08/05 09:11:29;;;;;;;9.40;2.90;;;;;;;42.44;30.78;98930.74;107987;1274;97004;-68
2022/08/05 09:14:17;;;;;;;5.80;2.50;;;;;;;42.94;30.17;98925.17;107907;1274;97239;-70
2022/08/05 09:17:11;;;;;;;6.10;2.90;;;;;;;42.52;27.79;98932.88;107908;1275;112890;-68
2022/08/05 09:20:00;;;;;;;2.90;2.40;;;;;;;41.27;27.22;98933.07;107936;1276;97431;-67
2022/08/05 09:23:06;;;;;;;7.20;2.80;;;;;;;40.59;27.11;98933.66;107843;1275;107868;-67
2022/08/05 09:25:40;;;;;;;5.80;2.90;;;;;;;40.09;26.95;98922.45;107913;1276;97082;-67
2022/08/05 09:28:28;;;;;;;6.70;2.60;;;;;;;40.27;27.37;98931.89;107998;1274;96884;-67
2022/08/05 09:31:10;;;;;;;5.10;2.60;;;;;;;40.22;27.02;98922.34;107988;1274;112301;-68
2022/08/05 09:34:04;;;;;;;6.10;3.00;;;;;;;40.17;26.95;98916.60;107859;1276;97439;-66
2022/08/05 09:36:50;;;;;;;5.40;2.90;;;;;;;40.46;27.34;98912.54;107855;1276;107988;-68
2022/08/05 09:39:23;;;;;;;6.90;3.20;;;;;;;40.60;26.61;98913.72;107837;1274;97181;-67
2022/08/05 09:42:16;;;;;;;4.40;2.90;;;;;;;40.31;26.39;98910.71;107906;1276;97063;-68
2022/08/05 09:44:55;;;;;;;7.00;2.80;;;;;;;40.26;26.34;98914.73;107848;1275;112912;-68
2022/08/05 09:47:43;;;;;;;8.10;2.90;;;;;;;40.36;25.94;98917.69;107947;1274;97615;-67
2022/08/05 09:50:34;;;;;;;2.70;2.40;;;;;;;40.00;25.45;98911.55;107899;1275;107881;-68
2022/08/05 09:53:10;;;;;;;4.90;2.60;;;;;;;39.92;24.97;98912.77;107820;1274;97044;-68
2022/08/05 09:55:59;;;;;;;4.00;2.50;;;;;;;39.68;25.44;98917.59;107944;1275;97013;-68
2022/08/05 09:58:31;;;;;;;5.80;2.60;;;;;;;39.84;25.05;98918.91;107971;1274;112947;-68
2022/08/05 10:01:02;;;;;;;7.80;3.00;;;;;;;39.74;24.93;98916.48;107879;1274;97446;-68
2022/08/05 10:04:02;;;;;;;6.50;2.50;;;;;;;39.85;25.19;98918.56;107898;1274;108413;-68
2022/08/05 10:06:31;;;;;;;7.90;2.50;;;;;;;39.60;24.94;98925.21;107879;1276;97362;-69
2022/08/05 10:09:14;;;;;;;7.00;2.70;;;;;;;38.90;24.87;98923.78;107904;1274;97124;-68
2022/08/05 10:12:07;;;;;;;6.40;3.40;;;;;;;38.58;24.72;98916.94;107986;1272;112435;-68
2022/08/05 10:15:32;;;;;;;4.30;3.00;;;;;;;37.59;24.56;98912.09;107990;1274;97480;-67
2022/08/05 10:18:07;;;;;;;10.00;3.20;;;;;;;37.18;25.20;98906.91;107973;1274;107901;-68
2022/08/05 10:20:44;;;;;;;6.70;3.40;;;;;;;37.11;24.96;98908.31;107939;1274;97062;-67
2022/08/05 10:23:28;;;;;;;7.80;3.10;;;;;;;36.78;24.84;98901.09;107831;1274;97324;-68
2022/08/05 10:26:16;;;;;;;3.90;2.90;;;;;;;36.15;24.61;98898.83;107931;1274;111424;-67
2022/08/05 10:28:45;;;;;;;7.40;3.40;;;;;;;35.56;24.59;98904.27;107942;1274;97485;-67
2022/08/05 10:31:16;;;;;;;5.60;3.30;;;;;;;35.24;25.07;98900.52;107957;1274;108670;-68
2022/08/05 10:34:06;;;;;;;6.80;3.60;;;;;;;35.18;25.26;98896.77;107843;1274;97045;-67
2022/08/05 10:36:36;;;;;;;6.60;2.80;;;;;;;35.19;25.51;98891.29;107998;1274;96988;-66
2022/08/05 10:39:11;;;;;;;6.40;3.30;;;;;;;35.19;25.67;98891.79;107985;1274;112869;-67
2022/08/05 10:42:01;;;;;;;9.80;3.30;;;;;;;35.08;25.40;98881.58;108002;1274;97411;-66
2022/08/05 10:44:31;;;;;;;7.30;3.10;;;;;;;34.84;25.50;98882.85;107958;1274;107935;-67
2022/08/05 10:47:09;;;;;;;10.70;3.70;;;;;;;34.66;25.56;98884.89;107985;1274;96981;-67
2022/08/05 10:50:12;;;;;;;10.30;3.70;;;;;;;34.41;25.59;98882.31;108015;1274;96940;-68
2022/08/05 10:52:59;;;;;;;;;;;;;;;34.06;25.62;98877.21;107871;1274;112933;-67
2022/08/05 10:55:29;;;;;;;9.60;3.60;;;;;;;33.82;25.64;98873.69;107973;1274;97429;-67
2022/08/05 10:58:19;;;;;;;5.90;3.40;;;;;;;33.80;25.93;98863.87;107923;1275;107928;-67
2022/08/05 11:00:48;;;;;;;7.70;3.60;;;;;;;33.85;25.90;98863.71;107975;1274;96926;-68
2022/08/05 11:03:29;;;;;;;9.70;3.60;;;;;;;33.83;26.21;98862.16;108028;1274;97363;-67
2022/08/05 11:06:06;;;;;;;7.70;3.80;;;;;;;33.87;26.12;98872.26;107968;1274;112981;-68
2022/08/05 11:09:20;;;;;;;11.60;3.80;;;;;;;33.89;26.47;98870.30;107992;1274;97499;-68
2022/08/05 11:12:41;;;;;;;8.50;3.80;;;;;;;33.68;26.51;98871.31;107863;1274;107889;-67
2022/08/05 11:15:16;;;;;;;7.20;3.40;;;;;;;33.40;26.59;98865.77;107952;1274;96947;-68
2022/08/05 11:17:51;;;;;;;7.60;3.50;;;;;;;33.22;26.71;98861.97;107996;1274;97029;-67
2022/08/05 11:20:40;;;;;;;7.00;3.80;;;;;;;33.12;26.70;98863.10;107997;1274;112786;-68
2022/08/05 11:23:30;;;;;;;8.90;3.60;;;;;;;33.00;26.76;98866.00;107876;1274;97414;-68
2022/08/05 11:26:21;;;;;;;6.80;3.40;;;;;;;32.97;26.80;98862.95;107979;1274;108051;-67
2022/08/05 11:29:02;;;;;;;6.80;3.60;;;;;;;32.99;27.16;98863.58;107985;1274;98571;-66
2022/08/05 11:31:42;;;;;;;12.10;4.20;;;;;;;33.03;27.40;98851.70;108004;1274;96951;-68
2022/08/05 11:34:36;;;;;;;8.30;4.10;;;;;;;33.08;27.22;98852.89;107892;1274;112698;-66
2022/08/05 11:37:05;;;;;;;8.80;3.90;;;;;;;33.14;27.45;98846.82;108001;1274;97483;-67
2022/08/05 11:39:53;;;;;;;7.90;3.70;;;;;;;33.02;27.23;98843.48;107989;1274;107662;-66
2022/08/05 11:42:34;;;;;;;8.60;3.90;;;;;;;32.81;27.55;98847.73;107974;1274;96960;-68
2022/08/05 11:45:07;;;;;;;7.10;3.70;;;;;;;32.57;27.61;98851.37;107996;1274;96928;-67
2022/08/05 11:47:56;;;;;;;7.00;3.60;;;;;;;32.44;27.84;98849.94;107984;1274;112557;-68
2022/08/05 11:50:26;;;;;;;11.70;4.20;;;;;;;32.39;28.03;98844.29;107985;1274;97478;-66
2022/08/05 11:52:54;;;;;;;6.30;3.70;;;;;;;32.46;27.96;98844.52;107956;1274;108888;-67
2022/08/05 11:55:25;;;;;;;8.20;3.50;;;;;;;32.55;28.36;98848.29;107977;1274;96957;-67
2022/08/05 11:58:03;;;;;;;10.20;3.70;;;;;;;32.67;28.33;98845.40;108018;1274;96944;-67
2022/08/05 12:00:39;;;;;;;9.50;3.80;;;;;;;32.76;28.10;98845.38;107937;1274;112903;-66
2022/08/05 12:03:20;;;;;;;8.80;3.50;;;;;;;32.65;28.17;98845.28;107960;1274;97540;-66
2022/08/05 12:06:01;;;;;;;7.70;3.80;;;;;;;32.69;28.47;98843.33;107939;1274;107928;-66
2022/08/05 12:08:29;;;;;;;6.20;3.60;;;;;;;32.83;28.72;98848.90;107976;1274;97086;-67
2022/08/05 12:11:03;;;;;;;7.80;3.80;;;;;;;32.95;28.52;98846.09;107869;1274;97057;-67